sensor_id;sensor_type;location;lat;lon;timestamp;P1;durP1;ratioP1;P2;durP2;ratioP2
70049;SDS011;57391;51.306;22.680;2022-12-07T00:01:38;29.60;;;11.60;;
70049;SDS011;57391;51.306;22.680;2022-12-07T00:04:08;25.90;;;10.40;;
70049;SDS011;57391;51.306;22.680;2022-12-07T00:06:39;23.30;;;11.10;;
70049;SDS011;57391;51.306;22.680;2022-12-07T00:09:11;23.20;;;9.70;;
70049;SDS011;57391;51.306;22.680;2022-12-07T00:11:40;24.10;;;11.20;;
70049;SDS011;57391;51.306;22.680;2022-12-07T00:25:15;23.70;;;10.90;;
70049;SDS011;57391;51.306;22.680;2022-12-07T00:27:42;26.60;;;11.90;;
70049;SDS011;57391;51.306;22.680;2022-12-07T00:30:10;26.70;;;12.90;;
70049;SDS011;57391;51.306;22.680;2022-12-07T00:32:37;24.60;;;10.70;;
70049;SDS011;57391;51.306;22.680;2022-12-07T00:35:05;25.70;;;10.20;;
70049;SDS011;57391;51.306;22.680;2022-12-07T00:37:32;23.00;;;11.00;;
70049;SDS011;57391;51.306;22.680;2022-12-07T00:39:59;19.50;;;9.10;;
70049;SDS011;57391;51.306;22.680;2022-12-07T00:42:28;22.50;;;10.70;;
70049;SDS011;57391;51.306;22.680;2022-12-07T00:44:55;24.10;;;9.80;;
70049;SDS011;57391;51.306;22.680;2022-12-07T00:47:22;24.70;;;10.90;;
70049;SDS011;57391;51.306;22.680;2022-12-07T00:49:49;23.10;;;10.30;;
70049;SDS011;57391;51.306;22.680;2022-12-07T00:52:16;21.60;;;9.00;;
70049;SDS011;57391;51.306;22.680;2022-12-07T00:54:44;26.30;;;11.50;;
70049;SDS011;57391;51.306;22.680;2022-12-07T00:57:10;22.50;;;10.90;;
70049;SDS011;57391;51.306;22.680;2022-12-07T00:59:38;23.30;;;11.40;;
70049;SDS011;57391;51.306;22.680;2022-12-07T01:02:04;27.20;;;11.70;;
70049;SDS011;57391;51.306;22.680;2022-12-07T01:04:33;23.00;;;10.00;;
70049;SDS011;57391;51.306;22.680;2022-12-07T01:07:01;19.70;;;9.40;;
70049;SDS011;57391;51.306;22.680;2022-12-07T01:09:28;24.40;;;10.30;;
70049;SDS011;57391;51.306;22.680;2022-12-07T01:11:55;22.00;;;11.20;;
70049;SDS011;57391;51.306;22.680;2022-12-07T01:14:22;24.30;;;11.20;;
70049;SDS011;57391;51.306;22.680;2022-12-07T01:16:49;23.30;;;10.60;;
70049;SDS011;57391;51.306;22.680;2022-12-07T01:19:16;21.80;;;10.60;;
70049;SDS011;57391;51.306;22.680;2022-12-07T01:21:43;20.40;;;10.30;;
70049;SDS011;57391;51.306;22.680;2022-12-07T01:24:11;23.20;;;10.60;;
70049;SDS011;57391;51.306;22.680;2022-12-07T01:26:38;22.40;;;10.50;;
70049;SDS011;57391;51.306;22.680;2022-12-07T01:29:05;19.40;;;9.40;;
70049;SDS011;57391;51.306;22.680;2022-12-07T01:31:33;22.70;;;9.90;;
70049;SDS011;57391;51.306;22.680;2022-12-07T01:34:01;23.40;;;10.10;;
70049;SDS011;57391;51.306;22.680;2022-12-07T01:36:32;20.30;;;9.30;;
70049;SDS011;57391;51.306;22.680;2022-12-07T01:39:05;21.70;;;11.10;;
70049;SDS011;57391;51.306;22.680;2022-12-07T01:41:36;21.90;;;10.80;;
70049;SDS011;57391;51.306;22.680;2022-12-07T01:44:29;24.30;;;11.20;;
70049;SDS011;57391;51.306;22.680;2022-12-07T01:47:00;21.40;;;10.50;;
70049;SDS011;57391;51.306;22.680;2022-12-07T01:52:13;19.00;;;8.50;;
70049;SDS011;57391;51.306;22.680;2022-12-07T01:54:42;21.40;;;10.90;;
70049;SDS011;57391;51.306;22.680;2022-12-07T01:57:11;20.00;;;10.10;;
70049;SDS011;57391;51.306;22.680;2022-12-07T01:59:42;22.30;;;10.30;;
70049;SDS011;57391;51.306;22.680;2022-12-07T02:02:20;22.60;;;9.90;;
70049;SDS011;57391;51.306;22.680;2022-12-07T02:04:54;21.50;;;10.30;;
70049;SDS011;57391;51.306;22.680;2022-12-07T02:07:25;22.70;;;10.20;;
70049;SDS011;57391;51.306;22.680;2022-12-07T02:09:54;21.80;;;9.70;;
70049;SDS011;57391;51.306;22.680;2022-12-07T02:12:23;22.00;;;9.80;;
70049;SDS011;57391;51.306;22.680;2022-12-07T02:14:52;20.60;;;10.10;;
70049;SDS011;57391;51.306;22.680;2022-12-07T02:20:37;20.70;;;10.10;;
70049;SDS011;57391;51.306;22.680;2022-12-07T02:35:41;16.00;;;8.70;;
70049;SDS011;57391;51.306;22.680;2022-12-07T02:40:53;17.00;;;7.40;;
70049;SDS011;57391;51.306;22.680;2022-12-07T02:43:34;14.50;;;6.40;;
70049;SDS011;57391;51.306;22.680;2022-12-07T02:46:10;12.90;;;6.30;;
70049;SDS011;57391;51.306;22.680;2022-12-07T02:48:43;11.50;;;6.20;;
70049;SDS011;57391;51.306;22.680;2022-12-07T02:51:11;11.70;;;6.80;;
70049;SDS011;57391;51.306;22.680;2022-12-07T02:53:40;12.10;;;6.00;;
70049;SDS011;57391;51.306;22.680;2022-12-07T03:04:44;11.90;;;6.10;;
70049;SDS011;57391;51.306;22.680;2022-12-07T03:07:25;10.40;;;5.90;;
70049;SDS011;57391;51.306;22.680;2022-12-07T03:10:14;11.10;;;5.60;;
70049;SDS011;57391;51.306;22.680;2022-12-07T03:16:04;9.90;;;4.90;;
70049;SDS011;57391;51.306;22.680;2022-12-07T03:18:46;8.90;;;4.60;;
70049;SDS011;57391;51.306;22.680;2022-12-07T03:21:22;9.60;;;4.00;;
70049;SDS011;57391;51.306;22.680;2022-12-07T03:23:58;6.90;;;3.80;;
70049;SDS011;57391;51.306;22.680;2022-12-07T03:26:34;6.70;;;3.50;;
70049;SDS011;57391;51.306;22.680;2022-12-07T03:29:17;7.20;;;3.70;;
70049;SDS011;57391;51.306;22.680;2022-12-07T03:31:59;8.10;;;3.60;;
70049;SDS011;57391;51.306;22.680;2022-12-07T03:34:41;5.80;;;2.60;;
70049;SDS011;57391;51.306;22.680;2022-12-07T03:37:40;7.20;;;3.30;;
70049;SDS011;57391;51.306;22.680;2022-12-07T03:40:34;7.50;;;2.90;;
70049;SDS011;57391;51.306;22.680;2022-12-07T03:43:06;5.70;;;2.80;;
70049;SDS011;57391;51.306;22.680;2022-12-07T03:45:38;5.60;;;2.30;;
70049;SDS011;57391;51.306;22.680;2022-12-07T03:50:52;3.80;;;2.00;;
70049;SDS011;57391;51.306;22.680;2022-12-07T03:54:05;6.70;;;2.30;;
70049;SDS011;57391;51.306;22.680;2022-12-07T03:56:27;5.70;;;2.30;;
70049;SDS011;57391;51.306;22.680;2022-12-07T03:58:55;5.30;;;2.30;;
70049;SDS011;57391;51.306;22.680;2022-12-07T04:01:24;4.90;;;2.20;;
70049;SDS011;57391;51.306;22.680;2022-12-07T04:03:51;5.20;;;2.00;;
70049;SDS011;57391;51.306;22.680;2022-12-07T04:06:19;4.20;;;2.10;;
70049;SDS011;57391;51.306;22.680;2022-12-07T04:08:46;4.90;;;2.50;;
70049;SDS011;57391;51.306;22.680;2022-12-07T04:11:13;5.30;;;2.60;;
70049;SDS011;57391;51.306;22.680;2022-12-07T04:13:40;5.50;;;2.70;;
70049;SDS011;57391;51.306;22.680;2022-12-07T04:16:26;4.90;;;2.40;;
70049;SDS011;57391;51.306;22.680;2022-12-07T04:18:53;4.50;;;2.20;;
70049;SDS011;57391;51.306;22.680;2022-12-07T04:21:20;4.80;;;2.30;;
70049;SDS011;57391;51.306;22.680;2022-12-07T04:23:47;5.00;;;2.70;;
70049;SDS011;57391;51.306;22.680;2022-12-07T04:26:15;4.40;;;2.20;;
70049;SDS011;57391;51.306;22.680;2022-12-07T04:28:41;4.30;;;2.00;;
70049;SDS011;57391;51.306;22.680;2022-12-07T04:31:09;6.10;;;2.50;;
70049;SDS011;57391;51.306;22.680;2022-12-07T04:33:36;6.20;;;2.90;;
70049;SDS011;57391;51.306;22.680;2022-12-07T04:36:04;6.00;;;2.50;;
70049;SDS011;57391;51.306;22.680;2022-12-07T04:38:31;5.90;;;2.90;;
70049;SDS011;57391;51.306;22.680;2022-12-07T04:41:04;6.30;;;2.50;;
70049;SDS011;57391;51.306;22.680;2022-12-07T04:43:36;7.00;;;2.90;;
70049;SDS011;57391;51.306;22.680;2022-12-07T04:46:03;7.60;;;3.20;;
70049;SDS011;57391;51.306;22.680;2022-12-07T04:48:30;6.20;;;3.10;;
70049;SDS011;57391;51.306;22.680;2022-12-07T04:50:57;8.20;;;3.10;;
70049;SDS011;57391;51.306;22.680;2022-12-07T04:53:25;5.80;;;3.10;;
70049;SDS011;57391;51.306;22.680;2022-12-07T04:55:51;6.40;;;2.80;;
70049;SDS011;57391;51.306;22.680;2022-12-07T04:58:19;7.30;;;3.40;;
70049;SDS011;57391;51.306;22.680;2022-12-07T05:00:46;7.30;;;3.10;;
70049;SDS011;57391;51.306;22.680;2022-12-07T05:03:13;6.80;;;3.00;;
70049;SDS011;57391;51.306;22.680;2022-12-07T05:05:41;7.60;;;3.30;;
70049;SDS011;57391;51.306;22.680;2022-12-07T05:08:08;7.60;;;3.00;;
70049;SDS011;57391;51.306;22.680;2022-12-07T05:10:36;7.00;;;3.10;;
70049;SDS011;57391;51.306;22.680;2022-12-07T05:13:03;6.20;;;2.80;;
70049;SDS011;57391;51.306;22.680;2022-12-07T05:15:31;6.20;;;2.80;;
70049;SDS011;57391;51.306;22.680;2022-12-07T05:17:58;6.40;;;3.00;;
70049;SDS011;57391;51.306;22.680;2022-12-07T05:20:25;5.50;;;2.90;;
70049;SDS011;57391;51.306;22.680;2022-12-07T05:22:52;7.40;;;2.90;;
70049;SDS011;57391;51.306;22.680;2022-12-07T05:25:20;9.00;;;3.40;;
70049;SDS011;57391;51.306;22.680;2022-12-07T05:27:47;6.60;;;2.90;;
70049;SDS011;57391;51.306;22.680;2022-12-07T05:30:15;6.80;;;3.40;;
70049;SDS011;57391;51.306;22.680;2022-12-07T05:32:42;5.90;;;2.80;;
70049;SDS011;57391;51.306;22.680;2022-12-07T05:35:10;6.10;;;2.90;;
70049;SDS011;57391;51.306;22.680;2022-12-07T05:37:36;6.80;;;3.00;;
70049;SDS011;57391;51.306;22.680;2022-12-07T05:40:05;6.40;;;3.40;;
70049;SDS011;57391;51.306;22.680;2022-12-07T05:42:33;7.80;;;3.40;;
70049;SDS011;57391;51.306;22.680;2022-12-07T05:45:01;5.90;;;3.10;;
70049;SDS011;57391;51.306;22.680;2022-12-07T05:47:29;5.70;;;3.10;;
70049;SDS011;57391;51.306;22.680;2022-12-07T05:49:56;6.40;;;3.60;;
70049;SDS011;57391;51.306;22.680;2022-12-07T05:52:23;10.20;;;4.50;;
70049;SDS011;57391;51.306;22.680;2022-12-07T05:54:51;8.50;;;3.70;;
70049;SDS011;57391;51.306;22.680;2022-12-07T05:57:19;8.90;;;3.60;;
70049;SDS011;57391;51.306;22.680;2022-12-07T05:59:46;7.40;;;3.30;;
70049;SDS011;57391;51.306;22.680;2022-12-07T06:02:15;7.40;;;3.80;;
70049;SDS011;57391;51.306;22.680;2022-12-07T06:04:45;8.50;;;4.10;;
70049;SDS011;57391;51.306;22.680;2022-12-07T06:07:15;7.20;;;3.40;;
70049;SDS011;57391;51.306;22.680;2022-12-07T06:09:43;8.10;;;4.10;;
70049;SDS011;57391;51.306;22.680;2022-12-07T06:12:11;8.50;;;3.70;;
70049;SDS011;57391;51.306;22.680;2022-12-07T06:14:57;7.80;;;3.40;;
70049;SDS011;57391;51.306;22.680;2022-12-07T06:17:25;7.00;;;3.30;;
70049;SDS011;57391;51.306;22.680;2022-12-07T06:19:52;6.40;;;3.00;;
70049;SDS011;57391;51.306;22.680;2022-12-07T06:22:20;7.40;;;3.50;;
70049;SDS011;57391;51.306;22.680;2022-12-07T06:24:47;7.40;;;3.70;;
70049;SDS011;57391;51.306;22.680;2022-12-07T06:27:14;8.10;;;3.90;;
70049;SDS011;57391;51.306;22.680;2022-12-07T11:26:58;7.60;;;3.40;;
70049;SDS011;57391;51.306;22.680;2022-12-07T11:30:02;9.80;;;4.60;;
70049;SDS011;57391;51.306;22.680;2022-12-07T11:33:01;7.90;;;3.70;;
70049;SDS011;57391;51.306;22.680;2022-12-07T11:35:48;7.40;;;3.20;;
70049;SDS011;57391;51.306;22.680;2022-12-07T11:38:26;7.40;;;3.50;;
70049;SDS011;57391;51.306;22.680;2022-12-07T11:41:05;9.50;;;4.90;;
70049;SDS011;57391;51.306;22.680;2022-12-07T11:44:01;10.20;;;5.70;;
70049;SDS011;57391;51.306;22.680;2022-12-07T11:46:45;9.90;;;4.60;;
70049;SDS011;57391;51.306;22.680;2022-12-07T11:52:02;13.20;;;6.50;;
70049;SDS011;57391;51.306;22.680;2022-12-07T11:54:40;10.40;;;5.00;;
70049;SDS011;57391;51.306;22.680;2022-12-07T11:57:19;18.30;;;8.50;;
70049;SDS011;57391;51.306;22.680;2022-12-07T12:00:01;14.10;;;6.50;;
70049;SDS011;57391;51.306;22.680;2022-12-07T12:02:41;11.70;;;5.50;;
70049;SDS011;57391;51.306;22.680;2022-12-07T12:05:19;12.70;;;5.40;;
70049;SDS011;57391;51.306;22.680;2022-12-07T12:08:05;14.10;;;6.60;;
70049;SDS011;57391;51.306;22.680;2022-12-07T12:11:05;13.30;;;6.30;;
70049;SDS011;57391;51.306;22.680;2022-12-07T12:14:29;15.00;;;6.20;;
70049;SDS011;57391;51.306;22.680;2022-12-07T12:22:53;8.80;;;6.60;;
70049;SDS011;57391;51.306;22.680;2022-12-07T12:25:50;9.50;;;5.00;;
70049;SDS011;57391;51.306;22.680;2022-12-07T12:28:32;10.10;;;5.00;;
70049;SDS011;57391;51.306;22.680;2022-12-07T12:33:49;11.50;;;5.10;;
70049;SDS011;57391;51.306;22.680;2022-12-07T12:46:54;12.20;;;5.50;;
70049;SDS011;57391;51.306;22.680;2022-12-07T12:55:12;14.10;;;4.90;;
70049;SDS011;57391;51.306;22.680;2022-12-07T12:58:21;14.00;;;7.70;;
70049;SDS011;57391;51.306;22.680;2022-12-07T13:00:47;13.20;;;5.60;;
70049;SDS011;57391;51.306;22.680;2022-12-07T13:03:37;13.10;;;6.40;;
70049;SDS011;57391;51.306;22.680;2022-12-07T13:06:32;10.70;;;5.30;;
70049;SDS011;57391;51.306;22.680;2022-12-07T13:09:18;10.30;;;3.80;;
70049;SDS011;57391;51.306;22.680;2022-12-07T13:12:03;9.80;;;4.60;;
70049;SDS011;57391;51.306;22.680;2022-12-07T13:14:54;12.70;;;5.90;;
70049;SDS011;57391;51.306;22.680;2022-12-07T13:20:03;11.70;;;5.60;;
70049;SDS011;57391;51.306;22.680;2022-12-07T13:28:14;10.50;;;5.40;;
70049;SDS011;57391;51.306;22.680;2022-12-07T13:30:54;11.20;;;5.60;;
70049;SDS011;57391;51.306;22.680;2022-12-07T13:33:29;11.30;;;5.70;;
70049;SDS011;57391;51.306;22.680;2022-12-07T13:35:57;11.20;;;5.20;;
70049;SDS011;57391;51.306;22.680;2022-12-07T13:38:32;16.60;;;6.60;;
70049;SDS011;57391;51.306;22.680;2022-12-07T13:41:13;13.20;;;5.80;;
70049;SDS011;57391;51.306;22.680;2022-12-07T13:51:50;10.80;;;5.50;;
70049;SDS011;57391;51.306;22.680;2022-12-07T13:54:19;11.00;;;5.60;;
70049;SDS011;57391;51.306;22.680;2022-12-07T13:56:51;11.40;;;6.10;;
70049;SDS011;57391;51.306;22.680;2022-12-07T13:59:22;11.70;;;5.50;;
70049;SDS011;57391;51.306;22.680;2022-12-07T14:01:52;10.40;;;4.80;;
70049;SDS011;57391;51.306;22.680;2022-12-07T14:04:33;13.80;;;5.90;;
70049;SDS011;57391;51.306;22.680;2022-12-07T14:07:54;10.20;;;4.50;;
70049;SDS011;57391;51.306;22.680;2022-12-07T14:10:25;7.60;;;3.80;;
70049;SDS011;57391;51.306;22.680;2022-12-07T14:12:56;10.60;;;5.20;;
70049;SDS011;57391;51.306;22.680;2022-12-07T14:15:32;9.50;;;4.10;;
70049;SDS011;57391;51.306;22.680;2022-12-07T14:18:02;16.20;;;5.60;;
70049;SDS011;57391;51.306;22.680;2022-12-07T14:20:39;11.90;;;5.20;;
70049;SDS011;57391;51.306;22.680;2022-12-07T14:23:24;11.20;;;5.50;;
70049;SDS011;57391;51.306;22.680;2022-12-07T14:25:53;10.90;;;4.90;;
70049;SDS011;57391;51.306;22.680;2022-12-07T14:28:39;11.00;;;5.20;;
70049;SDS011;57391;51.306;22.680;2022-12-07T14:31:20;9.00;;;4.60;;
70049;SDS011;57391;51.306;22.680;2022-12-07T14:33:50;10.90;;;5.30;;
70049;SDS011;57391;51.306;22.680;2022-12-07T14:36:18;10.90;;;5.40;;
70049;SDS011;57391;51.306;22.680;2022-12-07T14:38:45;9.70;;;4.50;;
70049;SDS011;57391;51.306;22.680;2022-12-07T14:41:17;9.30;;;4.40;;
70049;SDS011;57391;51.306;22.680;2022-12-07T14:44:12;11.10;;;5.30;;
70049;SDS011;57391;51.306;22.680;2022-12-07T14:46:39;12.80;;;6.00;;
70049;SDS011;57391;51.306;22.680;2022-12-07T14:49:06;9.80;;;4.50;;
70049;SDS011;57391;51.306;22.680;2022-12-07T14:51:36;11.70;;;5.60;;
70049;SDS011;57391;51.306;22.680;2022-12-07T14:54:20;13.30;;;6.00;;
70049;SDS011;57391;51.306;22.680;2022-12-07T14:56:58;12.20;;;5.00;;
70049;SDS011;57391;51.306;22.680;2022-12-07T14:59:25;13.10;;;5.80;;
70049;SDS011;57391;51.306;22.680;2022-12-07T15:01:52;13.30;;;5.80;;
70049;SDS011;57391;51.306;22.680;2022-12-07T15:04:20;11.90;;;5.00;;
70049;SDS011;57391;51.306;22.680;2022-12-07T15:07:03;12.50;;;6.10;;
70049;SDS011;57391;51.306;22.680;2022-12-07T15:09:31;13.60;;;5.60;;
70049;SDS011;57391;51.306;22.680;2022-12-07T15:11:58;16.90;;;6.60;;
70049;SDS011;57391;51.306;22.680;2022-12-07T15:14:26;23.00;;;9.30;;
70049;SDS011;57391;51.306;22.680;2022-12-07T15:16:54;24.10;;;8.70;;
70049;SDS011;57391;51.306;22.680;2022-12-07T15:19:23;20.00;;;8.30;;
70049;SDS011;57391;51.306;22.680;2022-12-07T15:21:52;21.80;;;7.90;;
70049;SDS011;57391;51.306;22.680;2022-12-07T15:24:20;13.50;;;6.70;;
70049;SDS011;57391;51.306;22.680;2022-12-07T15:26:48;19.10;;;7.30;;
70049;SDS011;57391;51.306;22.680;2022-12-07T15:29:15;19.10;;;7.90;;
70049;SDS011;57391;51.306;22.680;2022-12-07T15:31:43;14.20;;;7.10;;
70049;SDS011;57391;51.306;22.680;2022-12-07T15:34:12;13.30;;;6.40;;
70049;SDS011;57391;51.306;22.680;2022-12-07T15:36:39;7.40;;;6.50;;
70049;SDS011;57391;51.306;22.680;2022-12-07T15:39:08;12.40;;;5.80;;
70049;SDS011;57391;51.306;22.680;2022-12-07T15:41:35;13.70;;;5.90;;
70049;SDS011;57391;51.306;22.680;2022-12-07T15:44:03;14.60;;;7.10;;
70049;SDS011;57391;51.306;22.680;2022-12-07T15:46:48;15.10;;;7.10;;
70049;SDS011;57391;51.306;22.680;2022-12-07T16:20:41;15.70;;;8.70;;
70049;SDS011;57391;51.306;22.680;2022-12-07T16:23:09;16.60;;;9.50;;
70049;SDS011;57391;51.306;22.680;2022-12-07T16:25:36;16.50;;;8.80;;
70049;SDS011;57391;51.306;22.680;2022-12-07T16:28:04;15.50;;;7.70;;
70049;SDS011;57391;51.306;22.680;2022-12-07T16:30:31;12.60;;;6.80;;
70049;SDS011;57391;51.306;22.680;2022-12-07T16:32:58;15.30;;;6.90;;
70049;SDS011;57391;51.306;22.680;2022-12-07T16:35:26;16.00;;;7.80;;
70049;SDS011;57391;51.306;22.680;2022-12-07T16:37:53;12.80;;;7.00;;
70049;SDS011;57391;51.306;22.680;2022-12-07T16:40:20;14.30;;;8.00;;
70049;SDS011;57391;51.306;22.680;2022-12-07T16:42:48;13.40;;;7.80;;
70049;SDS011;57391;51.306;22.680;2022-12-07T16:45:16;18.40;;;8.80;;
70049;SDS011;57391;51.306;22.680;2022-12-07T16:47:43;14.70;;;7.50;;
70049;SDS011;57391;51.306;22.680;2022-12-07T16:50:11;14.30;;;8.20;;
70049;SDS011;57391;51.306;22.680;2022-12-07T16:52:38;16.20;;;8.30;;
70049;SDS011;57391;51.306;22.680;2022-12-07T16:55:06;15.30;;;8.10;;
70049;SDS011;57391;51.306;22.680;2022-12-07T16:57:34;14.80;;;7.50;;
70049;SDS011;57391;51.306;22.680;2022-12-07T17:00:02;16.70;;;8.60;;
70049;SDS011;57391;51.306;22.680;2022-12-07T17:02:30;17.40;;;8.50;;
70049;SDS011;57391;51.306;22.680;2022-12-07T17:04:58;18.90;;;8.50;;
70049;SDS011;57391;51.306;22.680;2022-12-07T17:07:25;19.50;;;9.90;;
70049;SDS011;57391;51.306;22.680;2022-12-07T17:09:52;18.80;;;9.60;;
70049;SDS011;57391;51.306;22.680;2022-12-07T17:12:20;16.20;;;8.70;;
70049;SDS011;57391;51.306;22.680;2022-12-07T17:14:47;15.80;;;7.20;;
70049;SDS011;57391;51.306;22.680;2022-12-07T17:17:34;16.50;;;7.90;;
70049;SDS011;57391;51.306;22.680;2022-12-07T17:20:02;20.70;;;10.00;;
70049;SDS011;57391;51.306;22.680;2022-12-07T17:22:32;21.40;;;11.00;;
70049;SDS011;57391;51.306;22.680;2022-12-07T17:24:59;19.00;;;9.50;;
70049;SDS011;57391;51.306;22.680;2022-12-07T17:27:27;22.50;;;10.80;;
70049;SDS011;57391;51.306;22.680;2022-12-07T17:29:54;24.30;;;11.10;;
70049;SDS011;57391;51.306;22.680;2022-12-07T17:32:21;20.90;;;10.30;;
70049;SDS011;57391;51.306;22.680;2022-12-07T17:34:54;18.60;;;10.40;;
70049;SDS011;57391;51.306;22.680;2022-12-07T17:37:22;18.10;;;9.80;;
70049;SDS011;57391;51.306;22.680;2022-12-07T17:39:49;17.40;;;8.80;;
70049;SDS011;57391;51.306;22.680;2022-12-07T17:42:20;21.60;;;8.60;;
70049;SDS011;57391;51.306;22.680;2022-12-07T17:45:04;22.70;;;11.00;;
70049;SDS011;57391;51.306;22.680;2022-12-07T17:47:36;22.20;;;11.10;;
70049;SDS011;57391;51.306;22.680;2022-12-07T17:50:06;20.60;;;10.30;;
70049;SDS011;57391;51.306;22.680;2022-12-07T17:52:38;24.60;;;12.30;;
70049;SDS011;57391;51.306;22.680;2022-12-07T17:55:24;17.70;;;8.80;;
70049;SDS011;57391;51.306;22.680;2022-12-07T17:57:52;20.10;;;10.10;;
70049;SDS011;57391;51.306;22.680;2022-12-07T18:00:20;22.70;;;11.80;;
70049;SDS011;57391;51.306;22.680;2022-12-07T18:02:47;22.80;;;11.70;;
70049;SDS011;57391;51.306;22.680;2022-12-07T18:05:15;21.00;;;10.50;;
70049;SDS011;57391;51.306;22.680;2022-12-07T18:07:46;21.90;;;11.60;;
70049;SDS011;57391;51.306;22.680;2022-12-07T18:10:14;17.80;;;9.40;;
70049;SDS011;57391;51.306;22.680;2022-12-07T18:12:41;19.80;;;10.40;;
70049;SDS011;57391;51.306;22.680;2022-12-07T18:15:08;19.40;;;9.10;;
70049;SDS011;57391;51.306;22.680;2022-12-07T18:17:36;17.90;;;9.00;;
70049;SDS011;57391;51.306;22.680;2022-12-07T18:20:05;18.10;;;8.50;;
70049;SDS011;57391;51.306;22.680;2022-12-07T18:22:35;15.50;;;7.60;;
70049;SDS011;57391;51.306;22.680;2022-12-07T18:25:03;15.50;;;7.60;;
70049;SDS011;57391;51.306;22.680;2022-12-07T18:27:34;14.30;;;7.80;;
70049;SDS011;57391;51.306;22.680;2022-12-07T18:30:01;14.60;;;6.50;;
70049;SDS011;57391;51.306;22.680;2022-12-07T18:32:29;17.80;;;8.00;;
70049;SDS011;57391;51.306;22.680;2022-12-07T18:34:56;14.00;;;7.50;;
70049;SDS011;57391;51.306;22.680;2022-12-07T18:37:23;16.50;;;7.90;;
70049;SDS011;57391;51.306;22.680;2022-12-07T18:39:53;17.00;;;8.00;;
70049;SDS011;57391;51.306;22.680;2022-12-07T18:42:21;17.10;;;9.00;;
70049;SDS011;57391;51.306;22.680;2022-12-07T18:44:48;22.30;;;11.50;;
70049;SDS011;57391;51.306;22.680;2022-12-07T18:47:15;17.60;;;8.70;;
70049;SDS011;57391;51.306;22.680;2022-12-07T18:49:43;16.20;;;8.60;;
70049;SDS011;57391;51.306;22.680;2022-12-07T18:52:12;19.90;;;9.10;;
70049;SDS011;57391;51.306;22.680;2022-12-07T18:54:43;17.80;;;9.00;;
70049;SDS011;57391;51.306;22.680;2022-12-07T18:57:10;18.10;;;9.70;;
70049;SDS011;57391;51.306;22.680;2022-12-07T18:59:38;15.80;;;7.60;;
70049;SDS011;57391;51.306;22.680;2022-12-07T19:02:16;13.80;;;7.30;;
70049;SDS011;57391;51.306;22.680;2022-12-07T19:04:45;16.70;;;7.80;;
70049;SDS011;57391;51.306;22.680;2022-12-07T19:07:12;14.00;;;7.40;;
70049;SDS011;57391;51.306;22.680;2022-12-07T19:09:40;13.40;;;7.00;;
70049;SDS011;57391;51.306;22.680;2022-12-07T19:12:11;15.10;;;7.60;;
70049;SDS011;57391;51.306;22.680;2022-12-07T19:14:40;15.20;;;7.50;;
70049;SDS011;57391;51.306;22.680;2022-12-07T19:17:10;18.10;;;8.30;;
70049;SDS011;57391;51.306;22.680;2022-12-07T19:19:42;14.60;;;8.30;;
70049;SDS011;57391;51.306;22.680;2022-12-07T19:22:15;17.10;;;7.70;;
70049;SDS011;57391;51.306;22.680;2022-12-07T19:24:48;17.50;;;8.10;;
70049;SDS011;57391;51.306;22.680;2022-12-07T19:27:18;20.70;;;10.40;;
70049;SDS011;57391;51.306;22.680;2022-12-07T19:29:47;18.50;;;9.00;;
70049;SDS011;57391;51.306;22.680;2022-12-07T19:32:16;20.80;;;10.80;;
70049;SDS011;57391;51.306;22.680;2022-12-07T19:34:45;16.50;;;8.70;;
70049;SDS011;57391;51.306;22.680;2022-12-07T19:37:15;20.00;;;10.20;;
70049;SDS011;57391;51.306;22.680;2022-12-07T19:39:42;17.70;;;9.10;;
70049;SDS011;57391;51.306;22.680;2022-12-07T19:42:11;18.20;;;9.90;;
70049;SDS011;57391;51.306;22.680;2022-12-07T19:44:42;19.10;;;10.50;;
70049;SDS011;57391;51.306;22.680;2022-12-07T19:47:10;17.60;;;7.90;;
70049;SDS011;57391;51.306;22.680;2022-12-07T19:49:38;17.10;;;7.30;;
70049;SDS011;57391;51.306;22.680;2022-12-07T19:52:06;20.30;;;9.70;;
70049;SDS011;57391;51.306;22.680;2022-12-07T19:54:39;18.20;;;9.40;;
70049;SDS011;57391;51.306;22.680;2022-12-07T19:57:09;16.80;;;8.50;;
70049;SDS011;57391;51.306;22.680;2022-12-07T19:59:42;17.30;;;8.20;;
70049;SDS011;57391;51.306;22.680;2022-12-07T20:02:12;18.30;;;8.60;;
70049;SDS011;57391;51.306;22.680;2022-12-07T20:04:41;17.30;;;8.40;;
70049;SDS011;57391;51.306;22.680;2022-12-07T20:07:09;16.90;;;9.20;;
70049;SDS011;57391;51.306;22.680;2022-12-07T20:09:43;15.90;;;8.20;;
70049;SDS011;57391;51.306;22.680;2022-12-07T20:12:10;14.30;;;7.60;;
70049;SDS011;57391;51.306;22.680;2022-12-07T20:14:56;16.70;;;8.60;;
70049;SDS011;57391;51.306;22.680;2022-12-07T20:17:25;17.10;;;7.80;;
70049;SDS011;57391;51.306;22.680;2022-12-07T20:19:53;16.20;;;8.00;;
70049;SDS011;57391;51.306;22.680;2022-12-07T20:22:20;15.60;;;6.90;;
70049;SDS011;57391;51.306;22.680;2022-12-07T20:24:47;17.40;;;8.20;;
70049;SDS011;57391;51.306;22.680;2022-12-07T20:27:15;17.50;;;7.50;;
70049;SDS011;57391;51.306;22.680;2022-12-07T20:29:43;14.00;;;7.30;;
70049;SDS011;57391;51.306;22.680;2022-12-07T20:32:12;19.00;;;8.50;;
70049;SDS011;57391;51.306;22.680;2022-12-07T20:34:39;13.90;;;7.10;;
70049;SDS011;57391;51.306;22.680;2022-12-07T20:37:06;17.00;;;8.00;;
70049;SDS011;57391;51.306;22.680;2022-12-07T20:39:34;15.40;;;8.00;;
70049;SDS011;57391;51.306;22.680;2022-12-07T20:42:02;14.60;;;7.00;;
70049;SDS011;57391;51.306;22.680;2022-12-07T20:44:48;15.60;;;7.60;;
70049;SDS011;57391;51.306;22.680;2022-12-07T20:47:16;20.20;;;8.90;;
70049;SDS011;57391;51.306;22.680;2022-12-07T20:49:44;18.70;;;9.40;;
70049;SDS011;57391;51.306;22.680;2022-12-07T20:52:12;15.20;;;7.20;;
70049;SDS011;57391;51.306;22.680;2022-12-07T20:54:40;16.10;;;7.80;;
70049;SDS011;57391;51.306;22.680;2022-12-07T20:57:07;17.40;;;8.50;;
70049;SDS011;57391;51.306;22.680;2022-12-07T20:59:35;16.60;;;7.50;;
70049;SDS011;57391;51.306;22.680;2022-12-07T21:02:03;13.40;;;7.30;;
70049;SDS011;57391;51.306;22.680;2022-12-07T21:04:30;15.40;;;7.90;;
70049;SDS011;57391;51.306;22.680;2022-12-07T21:06:58;14.90;;;8.10;;
70049;SDS011;57391;51.306;22.680;2022-12-07T21:09:26;15.70;;;8.50;;
70049;SDS011;57391;51.306;22.680;2022-12-07T21:11:54;15.50;;;7.40;;
70049;SDS011;57391;51.306;22.680;2022-12-07T21:14:22;19.30;;;8.90;;
70049;SDS011;57391;51.306;22.680;2022-12-07T21:16:49;18.40;;;9.50;;
70049;SDS011;57391;51.306;22.680;2022-12-07T21:19:17;16.10;;;7.50;;
70049;SDS011;57391;51.306;22.680;2022-12-07T21:21:45;19.50;;;8.50;;
70049;SDS011;57391;51.306;22.680;2022-12-07T21:24:16;15.50;;;7.90;;
70049;SDS011;57391;51.306;22.680;2022-12-07T21:26:47;17.70;;;9.00;;
70049;SDS011;57391;51.306;22.680;2022-12-07T21:29:17;18.30;;;8.90;;
70049;SDS011;57391;51.306;22.680;2022-12-07T21:31:49;18.10;;;8.70;;
70049;SDS011;57391;51.306;22.680;2022-12-07T21:34:16;18.20;;;8.70;;
70049;SDS011;57391;51.306;22.680;2022-12-07T21:36:53;19.70;;;7.50;;
70049;SDS011;57391;51.306;22.680;2022-12-07T21:39:27;17.00;;;8.00;;
70049;SDS011;57391;51.306;22.680;2022-12-07T21:41:56;13.50;;;7.10;;
70049;SDS011;57391;51.306;22.680;2022-12-07T21:44:26;15.40;;;7.90;;
70049;SDS011;57391;51.306;22.680;2022-12-07T21:46:53;17.60;;;9.10;;
70049;SDS011;57391;51.306;22.680;2022-12-07T21:49:21;18.20;;;8.80;;